Time;durP1;ratioP1;P1;durP2;ratioP2;P2;SDS_P1;SDS_P2;PMS_P1;PMS_P2;Temp;Humidity;BMP_temperature;BMP_pressure;BME280_temperature;BME280_humidity;BME280_pressure;Samples;Min_cycle;Max_cycle;Signal;HPM_P1;HPM_P2
2022/03/05 00:00:57;;;;;;;9.20;5.25;;;1.90;1.00;;;;;;6133614;23;20206;-84
2022/03/05 00:03:24;;;;;;;7.75;6.20;;;1.90;1.00;;;;;;6136115;23;20204;-84
2022/03/05 00:05:51;;;;;;;9.80;5.57;;;1.90;1.00;;;;;;6130535;23;20228;-84
2022/03/05 00:08:18;;;;;;;8.13;5.60;;;1.80;1.00;;;;;;6130111;23;20188;-83
2022/03/05 00:10:46;;;;;;;12.45;8.93;;;1.70;1.00;;;;;;6131087;23;21136;-84
2022/03/05 00:13:13;;;;;;;10.18;5.93;;;1.70;1.00;;;;;;6132179;23;20200;-84
2022/03/05 00:15:42;;;;;;;9.60;6.68;;;1.60;1.00;;;;;;6131036;23;20243;-84
2022/03/05 00:18:09;;;;;;;9.85;6.10;;;1.60;1.00;;;;;;6130314;23;20192;-83
2022/03/05 00:20:35;;;;;;;7.93;6.13;;;1.60;1.00;;;;;;6132839;23;21667;-84
2022/03/05 00:23:02;;;;;;;8.65;6.22;;;1.60;1.00;;;;;;6129676;23;20211;-84
2022/03/05 00:25:30;;;;;;;10.15;7.03;;;1.50;1.00;;;;;;6136867;23;20205;-86
2022/03/05 00:27:58;;;;;;;9.38;6.47;;;1.50;1.00;;;;;;6146157;23;20679;-85
2022/03/05 00:30:25;;;;;;;8.25;5.85;;;1.40;1.00;;;;;;6144364;23;20198;-81
2022/03/05 00:32:52;;;;;;;7.95;5.93;;;1.30;1.00;;;;;;6137020;23;20991;-81
2022/03/05 00:35:18;;;;;;;12.43;8.13;;;1.30;1.00;;;;;;6151799;23;20204;-80
2022/03/05 00:37:45;;;;;;;6.63;5.40;;;1.30;1.00;;;;;;6149485;23;20236;-81
2022/03/05 00:40:12;;;;;;;9.80;5.50;;;1.30;1.00;;;;;;6152798;23;20208;-80
2022/03/05 00:42:39;;;;;;;9.88;6.20;;;1.20;1.00;;;;;;6151469;23;20187;-81
2022/03/05 00:45:08;;;;;;;10.90;8.35;;;1.20;1.00;;;;;;6139916;23;20188;-82
2022/03/05 00:47:36;;;;;;;9.40;6.57;;;1.20;1.00;;;;;;6134841;23;20192;-82
2022/03/05 00:50:05;;;;;;;9.25;6.57;;;1.10;1.00;;;;;;6131291;23;20199;-81
2022/03/05 00:52:31;;;;;;;11.20;7.80;;;1.10;1.00;;;;;;6132679;23;20195;-82
2022/03/05 00:54:58;;;;;;;9.45;6.85;;;1.00;1.00;;;;;;6137255;23;20210;-81
2022/03/05 00:57:27;;;;;;;12.43;6.32;;;1.10;1.00;;;;;;6133732;23;21052;-80
2022/03/05 00:59:54;;;;;;;9.82;6.60;;;1.10;1.00;;;;;;6131130;23;20192;-82
2022/03/05 01:02:22;;;;;;;9.52;7.13;;;1.10;1.00;;;;;;6131521;23;20407;-81
2022/03/05 01:04:49;;;;;;;9.82;6.80;;;1.20;1.00;;;;;;6133200;23;20214;-81
2022/03/05 01:07:16;;;;;;;7.93;5.95;;;1.20;1.00;;;;;;6129193;23;20188;-81
2022/03/05 01:09:43;;;;;;;7.32;5.80;;;1.30;1.00;;;;;;6135383;23;20285;-81
2022/03/05 01:12:10;;;;;;;11.27;6.30;;;1.40;1.00;;;;;;6137813;23;20204;-81
2022/03/05 01:14:38;;;;;;;9.35;6.53;;;1.50;1.00;;;;;;6132081;23;20250;-81
2022/03/05 01:17:05;;;;;;;8.85;6.50;;;1.50;1.00;;;;;;6127847;23;20196;-82
2022/03/05 01:19:36;;;;;;;11.32;6.43;;;1.50;1.00;;;;;;6132882;23;20215;-84
2022/03/05 01:22:03;;;;;;;7.63;6.72;;;1.60;1.00;;;;;;6131626;23;20203;-85
2022/03/05 01:24:31;;;;;;;10.23;6.38;;;1.60;1.00;;;;;;6133648;23;20200;-83
2022/03/05 01:26:58;;;;;;;10.25;6.85;;;1.60;1.00;;;;;;6132173;23;20200;-84
2022/03/05 01:29:25;;;;;;;10.05;6.53;;;1.70;1.00;;;;;;6131743;23;20211;-83
2022/03/05 01:31:51;;;;;;;10.18;6.10;;;1.70;1.00;;;;;;6134356;23;20215;-84
2022/03/05 01:34:18;;;;;;;8.77;5.90;;;1.70;1.00;;;;;;6132637;23;20200;-83
2022/03/05 01:36:48;;;;;;;9.25;6.72;;;1.70;1.00;;;;;;6132714;23;20234;-84
2022/03/05 01:39:16;;;;;;;10.82;7.82;;;1.70;1.00;;;;;;6131221;23;20180;-83
2022/03/05 01:41:45;;;;;;;11.50;7.32;;;1.80;1.00;;;;;;6131642;23;20202;-84
2022/03/05 01:44:12;;;;;;;10.95;8.02;;;1.70;1.00;;;;;;6131078;23;20203;-84
2022/03/05 01:46:40;;;;;;;9.55;7.22;;;1.70;1.00;;;;;;6133431;23;20195;-84
2022/03/05 01:49:09;;;;;;;11.80;7.80;;;1.70;1.00;;;;;;6131014;23;20192;-84
2022/03/05 01:51:37;;;;;;;6.72;6.03;;;1.70;1.00;;;;;;6133517;23;20223;-83
2022/03/05 01:54:07;;;;;;;7.22;5.97;;;1.60;1.00;;;;;;6132275;23;20215;-83
2022/03/05 01:56:37;;;;;;;10.85;6.82;;;1.60;1.00;;;;;;6133475;23;20192;-85
2022/03/05 01:59:04;;;;;;;10.15;6.85;;;1.50;1.00;;;;;;6133175;23;20287;-82
2022/03/05 02:01:31;;;;;;;11.98;7.15;;;1.50;1.00;;;;;;6136142;23;20191;-84
2022/03/05 02:03:59;;;;;;;8.90;7.28;;;1.50;1.00;;;;;;6137028;23;20263;-85
2022/03/05 02:06:27;;;;;;;8.25;6.30;;;1.40;1.00;;;;;;6136239;23;20267;-82
2022/03/05 02:08:56;;;;;;;12.25;7.57;;;1.40;1.00;;;;;;6130176;23;20199;-84
2022/03/05 02:11:26;;;;;;;12.75;8.55;;;1.40;1.00;;;;;;6132215;23;20235;-84
2022/03/05 02:13:54;;;;;;;10.70;7.10;;;1.30;1.00;;;;;;6137852;23;20631;-84
2022/03/05 02:16:21;;;;;;;9.80;6.85;;;1.30;1.00;;;;;;6142939;23;20207;-85
2022/03/05 02:18:49;;;;;;;10.82;7.80;;;1.20;1.00;;;;;;6144474;23;21088;-83
2022/03/05 02:21:18;;;;;;;12.35;7.22;;;1.20;1.00;;;;;;6141914;23;20188;-82
2022/03/05 02:23:46;;;;;;;15.82;9.10;;;1.10;1.00;;;;;;6150779;23;20207;-85
2022/03/05 02:26:13;;;;;;;13.57;9.52;;;1.10;1.00;;;;;;6157490;23;20256;-82
2022/03/05 02:28:40;;;;;;;9.77;8.18;;;1.10;1.00;;;;;;6155369;23;20195;-83
2022/03/05 02:31:07;;;;;;;10.38;8.57;;;1.00;1.00;;;;;;6147758;23;20191;-83
2022/03/05 02:33:34;;;;;;;10.80;8.55;;;0.90;1.00;;;;;;6147681;23;20207;-83
2022/03/05 02:36:02;;;;;;;10.57;7.78;;;0.90;1.00;;;;;;6150511;23;20204;-82
2022/03/05 02:38:30;;;;;;;16.10;8.80;;;0.80;1.00;;;;;;6153669;23;20207;-83
2022/03/05 02:40:57;;;;;;;14.23;9.13;;;0.80;1.00;;;;;;6154473;23;20187;-83
2022/03/05 02:43:25;;;;;;;11.20;8.15;;;0.80;1.00;;;;;;6153273;23;20192;-83
2022/03/05 02:45:52;;;;;;;13.73;8.80;;;0.80;1.00;;;;;;6155314;23;20243;-83
2022/03/05 02:48:21;;;;;;;12.35;8.57;;;0.70;1.00;;;;;;6146732;23;20211;-83
2022/03/05 02:50:49;;;;;;;11.85;8.52;;;0.70;1.00;;;;;;6133457;23;20352;-83
2022/03/05 02:53:17;;;;;;;8.98;7.82;;;0.70;1.00;;;;;;6134480;23;20210;-83
2022/03/05 02:55:47;;;;;;;9.57;8.02;;;0.70;1.00;;;;;;6134743;23;20973;-84
2022/03/05 02:58:14;;;;;;;11.88;8.20;;;0.70;1.00;;;;;;6137645;23;20196;-83
2022/03/05 03:00:41;;;;;;;12.15;8.35;;;0.70;1.00;;;;;;6148898;23;20236;-84
2022/03/05 03:03:08;;;;;;;12.13;8.35;;;0.70;1.00;;;;;;6142874;23;20202;-83
2022/03/05 03:05:35;;;;;;;15.52;9.13;;;0.60;1.00;;;;;;6128684;23;20271;-83
2022/03/05 03:08:02;;;;;;;11.93;9.00;;;0.60;1.00;;;;;;6127122;23;20231;-84
2022/03/05 03:10:28;;;;;;;12.77;8.95;;;0.60;1.00;;;;;;6126960;23;20944;-83
2022/03/05 03:12:58;;;;;;;11.07;8.70;;;0.60;1.00;;;;;;6126310;23;20405;-83
2022/03/05 03:15:25;;;;;;;13.90;9.55;;;0.60;1.00;;;;;;6129402;23;21100;-82
2022/03/05 03:17:52;;;;;;;12.07;9.35;;;0.50;1.00;;;;;;6129867;23;20196;-83
2022/03/05 03:20:22;;;;;;;11.98;8.50;;;0.50;1.00;;;;;;6125053;23;20661;-83
2022/03/05 03:22:49;;;;;;;11.68;9.25;;;0.50;1.00;;;;;;6130999;23;20247;-83
2022/03/05 03:25:15;;;;;;;16.42;9.38;;;0.50;1.00;;;;;;6150989;23;20199;-82
2022/03/05 03:27:42;;;;;;;11.88;9.13;;;0.40;1.00;;;;;;6152029;23;20235;-83
2022/03/05 03:30:12;;;;;;;11.27;8.52;;;0.40;1.00;;;;;;6141863;23;20861;-84
2022/03/05 03:32:39;;;;;;;17.67;9.65;;;0.40;1.00;;;;;;6134033;23;20188;-83
2022/03/05 03:35:08;;;;;;;16.45;9.52;;;0.40;1.00;;;;;;6131502;23;20191;-83
2022/03/05 03:37:35;;;;;;;11.18;9.20;;;0.30;1.00;;;;;;6133744;23;20195;-83
2022/03/05 03:40:03;;;;;;;13.05;9.30;;;0.30;1.00;;;;;;6131344;23;20191;-84
2022/03/05 03:42:30;;;;;;;15.35;10.48;;;0.30;1.00;;;;;;6131133;23;20266;-84
2022/03/05 03:44:57;;;;;;;13.02;9.10;;;0.20;1.00;;;;;;6132769;23;21328;-84
2022/03/05 03:47:25;;;;;;;10.80;9.18;;;0.30;1.00;;;;;;6132660;23;20188;-84
2022/03/05 03:49:52;;;;;;;13.50;9.77;;;0.30;1.00;;;;;;6129330;23;20196;-84
2022/03/05 03:52:19;;;;;;;13.40;9.40;;;0.30;1.00;;;;;;6137506;23;20199;-84
2022/03/05 03:54:48;;;;;;;14.32;9.77;;;0.30;1.00;;;;;;6132142;23;20195;-83
2022/03/05 03:57:15;;;;;;;12.80;9.55;;;0.20;1.00;;;;;;6129863;23;20291;-84
2022/03/05 03:59:42;;;;;;;11.82;9.02;;;0.20;1.00;;;;;;6131876;23;20216;-83
2022/03/05 04:02:08;;;;;;;12.98;10.07;;;0.20;1.00;;;;;;6133767;23;20970;-84
2022/03/05 04:04:37;;;;;;;14.85;9.23;;;0.20;1.00;;;;;;6132646;23;21122;-84
2022/03/05 04:09:48;;;;;;;13.40;9.93;;;0.10;1.00;;;;;;6129270;23;20187;-83
2022/03/05 04:12:17;;;;;;;15.10;10.32;;;0.10;1.00;;;;;;6133202;23;20982;-83
2022/03/05 04:14:44;;;;;;;11.85;8.77;;;0.00;1.00;;;;;;6132114;23;20279;-83
2022/03/05 04:17:11;;;;;;;12.85;10.32;;;0.00;1.00;;;;;;6133654;23;20211;-84
2022/03/05 04:19:39;;;;;;;14.27;9.10;;;0.00;1.00;;;;;;6134713;23;20256;-82
2022/03/05 04:22:06;;;;;;;16.45;10.20;;;0.00;1.00;;;;;;6107390;23;20191;-84
2022/03/05 04:24:35;;;;;;;16.17;10.77;;;0.00;1.00;;;;;;6142472;23;20192;-84
2022/03/05 04:27:02;;;;;;;13.63;8.98;;;0.00;1.00;;;;;;6148174;23;20258;-83
2022/03/05 04:29:29;;;;;;;14.85;9.43;;;0.00;1.00;;;;;;6149664;23;20190;-84
2022/03/05 04:31:56;;;;;;;10.93;8.45;;;0.00;1.00;;;;;;6144940;23;20239;-84
2022/03/05 04:34:22;;;;;;;12.18;8.82;;;0.00;1.00;;;;;;6145053;23;20234;-84
2022/03/05 04:36:51;;;;;;;12.60;8.60;;;0.00;1.00;;;;;;6143340;23;20335;-83
2022/03/05 04:39:17;;;;;;;12.75;10.23;;;0.00;1.00;;;;;;6131186;23;20184;-84
2022/03/05 04:41:45;;;;;;;10.45;9.30;;;0.00;1.00;;;;;;6133088;23;20200;-84
2022/03/05 04:44:12;;;;;;;13.60;10.60;;;0.00;1.00;;;;;;6129316;23;20208;-84
2022/03/05 04:46:41;;;;;;;14.43;10.30;;;0.00;1.00;;;;;;6131235;23;20203;-83
2022/03/05 04:49:09;;;;;;;13.32;10.15;;;0.00;1.00;;;;;;6132694;23;20200;-83
2022/03/05 04:51:37;;;;;;;11.68;9.93;;;0.00;1.00;;;;;;6133991;23;20196;-83
2022/03/05 04:54:06;;;;;;;11.10;9.18;;;0.00;1.00;;;;;;6132231;23;20208;-83
2022/03/05 04:56:32;;;;;;;15.75;10.30;;;0.00;1.00;;;;;;6132541;23;20207;-84
2022/03/05 04:58:59;;;;;;;10.68;8.50;;;0.00;1.00;;;;;;6132594;23;20255;-83
2022/03/05 05:01:26;;;;;;;14.70;9.80;;;0.00;1.00;;;;;;6131846;23;20203;-84
2022/03/05 05:03:53;;;;;;;14.55;9.35;;;0.00;1.00;;;;;;6129929;23;20700;-83
2022/03/05 05:06:20;;;;;;;13.23;9.63;;;0.00;1.00;;;;;;6133189;23;20259;-83
2022/03/05 05:08:47;;;;;;;10.25;8.82;;;0.00;1.00;;;;;;6133798;23;20296;-83
2022/03/05 05:11:15;;;;;;;13.05;10.32;;;0.00;1.00;;;;;;6133151;23;21097;-83
2022/03/05 05:13:42;;;;;;;17.48;10.65;;;-0.10;1.00;;;;;;6134055;23;20925;-84
2022/03/05 05:16:09;;;;;;;12.90;10.82;;;-0.10;1.00;;;;;;6138940;23;20204;-83
2022/03/05 05:18:37;;;;;;;14.00;10.18;;;-0.10;1.00;;;;;;6137177;23;20258;-84
2022/03/05 05:21:04;;;;;;;11.15;9.95;;;-0.10;1.00;;;;;;6138112;23;20211;-83
2022/03/05 05:23:31;;;;;;;15.75;10.60;;;-0.10;1.00;;;;;;6139962;23;20909;-83
2022/03/05 05:25:58;;;;;;;13.18;9.55;;;-0.10;1.00;;;;;;6157137;23;20389;-83
2022/03/05 05:28:26;;;;;;;17.63;11.13;;;-0.20;1.00;;;;;;6158469;23;20198;-84
2022/03/05 05:30:53;;;;;;;14.50;11.63;;;-0.20;1.00;;;;;;6149781;23;20210;-84
2022/03/05 05:33:20;;;;;;;14.45;11.13;;;-0.20;1.00;;;;;;6151730;23;20207;-84
2022/03/05 05:35:47;;;;;;;13.73;10.80;;;-0.20;1.00;;;;;;6149448;23;20187;-84
2022/03/05 05:38:13;;;;;;;12.98;9.82;;;-0.20;1.00;;;;;;6148098;23;20208;-84
2022/03/05 05:40:42;;;;;;;14.63;11.18;;;-0.20;1.00;;;;;;6141471;23;20192;-84
2022/03/05 05:43:08;;;;;;;12.07;10.35;;;-0.20;1.00;;;;;;6135201;23;20206;-85
2022/03/05 05:45:37;;;;;;;14.63;10.90;;;-0.20;1.00;;;;;;6137170;23;20188;-83
2022/03/05 05:48:07;;;;;;;15.05;11.73;;;-0.20;1.00;;;;;;6137651;23;20200;-83
2022/03/05 05:50:33;;;;;;;14.13;11.10;;;-0.20;1.00;;;;;;6134482;23;20696;-84
2022/03/05 05:53:01;;;;;;;15.40;11.10;;;-0.20;1.00;;;;;;6134359;23;20207;-84
2022/03/05 05:55:28;;;;;;;15.07;11.10;;;-0.20;1.00;;;;;;6129137;23;20192;-81
2022/03/05 05:57:55;;;;;;;16.38;11.80;;;-0.20;1.00;;;;;;6127725;23;20294;-80
2022/03/05 06:00:21;;;;;;;16.65;11.90;;;-0.20;1.00;;;;;;6125624;23;20316;-80
2022/03/05 06:02:50;;;;;;;16.60;12.00;;;-0.20;1.00;;;;;;6127203;23;20200;-81
2022/03/05 06:05:16;;;;;;;14.93;11.60;;;-0.20;1.00;;;;;;6125501;23;20248;-81
2022/03/05 06:07:43;;;;;;;13.07;11.70;;;-0.20;1.00;;;;;;6123658;23;20196;-80
2022/03/05 06:10:10;;;;;;;12.68;11.30;;;-0.20;1.00;;;;;;6125592;23;20198;-81
2022/03/05 06:12:37;;;;;;;17.33;11.32;;;-0.20;1.00;;;;;;6127166;23;20199;-78
2022/03/05 06:15:05;;;;;;;16.42;11.52;;;-0.10;1.00;;;;;;6126689;23;20279;-80
2022/03/05 06:17:32;;;;;;;17.38;12.20;;;-0.10;1.00;;;;;;6128855;23;20228;-80
2022/03/05 06:20:00;;;;;;;12.95;10.57;;;-0.10;1.00;;;;;;6127778;23;20247;-80
2022/03/05 06:22:27;;;;;;;19.10;12.10;;;0.00;1.00;;;;;;6126322;23;20187;-80
2022/03/05 06:24:56;;;;;;;16.65;11.27;;;0.00;1.00;;;;;;6128124;23;20230;-80
2022/03/05 06:27:22;;;;;;;15.07;11.98;;;0.10;1.00;;;;;;6126669;23;20275;-80
2022/03/05 06:29:49;;;;;;;15.07;10.60;;;0.20;1.00;;;;;;6128552;23;20219;-81
2022/03/05 06:32:16;;;;;;;14.27;12.55;;;0.20;1.00;;;;;;6127198;23;20199;-79
2022/03/05 06:34:42;;;;;;;13.10;11.65;;;0.20;1.00;;;;;;6127612;23;20196;-79
2022/03/05 06:37:10;;;;;;;16.35;12.07;;;0.20;1.00;;;;;;6127485;23;20212;-80
2022/03/05 06:39:37;;;;;;;13.02;11.63;;;0.30;1.00;;;;;;6127377;23;20213;-80
2022/03/05 06:42:04;;;;;;;12.80;10.85;;;0.40;1.00;;;;;;6125368;23;20196;-79
2022/03/05 06:44:32;;;;;;;19.23;13.45;;;0.50;1.00;;;;;;6126411;23;20195;-80
2022/03/05 06:46:59;;;;;;;18.17;12.43;;;0.50;1.00;;;;;;6129053;23;20981;-80
2022/03/05 06:49:26;;;;;;;14.82;12.13;;;0.60;1.00;;;;;;6129048;23;20677;-80
2022/03/05 06:51:52;;;;;;;14.70;12.35;;;0.60;1.00;;;;;;6126635;23;20205;-80
2022/03/05 06:54:21;;;;;;;15.88;11.60;;;0.70;1.00;;;;;;6129570;23;21000;-80
2022/03/05 06:56:47;;;;;;;15.48;10.55;;;0.70;1.00;;;;;;6127610;23;20725;-79
2022/03/05 06:59:14;;;;;;;13.02;10.60;;;0.70;1.00;;;;;;6129262;23;20198;-80
2022/03/05 07:01:41;;;;;;;14.73;11.52;;;0.80;1.00;;;;;;6132721;23;20192;-78
2022/03/05 07:04:08;;;;;;;15.55;10.88;;;0.80;1.00;;;;;;6129683;23;20247;-79
2022/03/05 07:06:37;;;;;;;13.63;11.38;;;0.90;1.00;;;;;;6132644;23;20188;-78
2022/03/05 07:09:06;;;;;;;17.42;11.80;;;0.90;1.00;;;;;;6136223;23;20206;-79
2022/03/05 07:11:34;;;;;;;15.07;11.85;;;1.10;1.00;;;;;;6131631;23;20191;-78
2022/03/05 07:14:01;;;;;;;18.08;11.55;;;1.10;1.00;;;;;;6131762;23;20210;-80
2022/03/05 07:16:28;;;;;;;13.70;11.43;;;1.20;1.00;;;;;;6137432;23;20202;-79
2022/03/05 07:18:55;;;;;;;14.80;11.30;;;1.30;1.00;;;;;;6133966;23;20214;-79
2022/03/05 07:21:21;;;;;;;16.58;11.98;;;1.40;1.00;;;;;;6132271;23;20199;-80
2022/03/05 07:23:48;;;;;;;14.52;10.98;;;1.50;1.00;;;;;;6131470;23;20200;-80
2022/03/05 07:26:16;;;;;;;14.23;11.48;;;1.50;1.00;;;;;;6129886;23;20196;-80
2022/03/05 07:28:44;;;;;;;16.48;11.88;;;1.60;1.00;;;;;;6130832;23;20269;-79
2022/03/05 07:31:11;;;;;;;17.60;12.13;;;1.60;1.00;;;;;;6130994;23;20262;-79
2022/03/05 07:33:38;;;;;;;14.57;11.05;;;1.70;1.00;;;;;;6128119;23;20226;-80
2022/03/05 07:36:05;;;;;;;12.55;9.95;;;1.90;1.00;;;;;;6130169;23;20683;-80
2022/03/05 07:38:35;;;;;;;15.48;10.93;;;1.90;1.00;;;;;;6130846;23;20207;-80
2022/03/05 07:41:01;;;;;;;16.65;11.65;;;2.10;1.00;;;;;;6129578;23;20466;-80
2022/03/05 07:43:31;;;;;;;17.25;9.73;;;2.20;1.00;;;;;;6137002;23;20280;-79
2022/03/05 07:45:59;;;;;;;12.18;10.27;;;2.30;1.00;;;;;;6130456;23;20200;-79
2022/03/05 07:48:26;;;;;;;13.75;10.52;;;2.40;1.00;;;;;;6131056;23;20287;-81
2022/03/05 07:50:53;;;;;;;15.18;11.35;;;2.40;1.00;;;;;;6132945;23;20192;-81
2022/03/05 07:53:19;;;;;;;19.35;13.32;;;2.50;1.00;;;;;;6131089;23;20251;-79
2022/03/05 07:55:47;;;;;;;16.67;12.60;;;2.60;1.00;;;;;;6134599;23;20243;-79
2022/03/05 07:58:16;;;;;;;12.05;10.82;;;2.70;1.00;;;;;;6132737;23;20204;-81
2022/03/05 08:00:43;;;;;;;13.82;10.07;;;2.70;1.00;;;;;;6134095;23;20191;-82
2022/03/05 08:03:14;;;;;;;11.98;10.05;;;2.90;1.00;;;;;;6134974;23;20247;-85
2022/03/05 08:05:43;;;;;;;15.00;11.57;;;3.00;1.00;;;;;;6134595;23;20179;-84
2022/03/05 08:08:09;;;;;;;13.38;11.95;;;3.10;1.00;;;;;;6131934;23;20219;-81
2022/03/05 08:10:36;;;;;;;15.10;11.90;;;3.20;1.00;;;;;;6131242;23;20234;-82
2022/03/05 08:13:03;;;;;;;11.15;9.80;;;3.30;1.00;;;;;;6133510;23;20204;-83
2022/03/05 08:15:30;;;;;;;15.85;11.07;;;3.40;1.00;;;;;;6156603;23;20183;-81
2022/03/05 08:17:59;;;;;;;13.82;11.57;;;3.50;1.00;;;;;;6153961;23;20467;-79
2022/03/05 08:20:29;;;;;;;12.73;11.40;;;3.60;1.00;;;;;;6154532;23;20188;-80
2022/03/05 08:22:56;;;;;;;16.58;12.40;;;3.70;1.00;;;;;;6155820;23;20195;-80
2022/03/05 08:25:23;;;;;;;13.52;10.00;;;3.70;1.00;;;;;;6156651;23;20184;-79
2022/03/05 08:27:50;;;;;;;13.43;10.48;;;3.90;1.00;;;;;;6159144;23;20172;-82
2022/03/05 08:30:21;;;;;;;13.50;10.32;;;3.90;1.00;;;;;;6157862;23;20188;-83
2022/03/05 08:32:48;;;;;;;13.32;10.55;;;3.90;1.00;;;;;;6157503;23;20188;-83
2022/03/05 08:35:16;;;;;;;14.90;10.50;;;4.00;1.00;;;;;;6157016;23;20172;-83
2022/03/05 08:37:44;;;;;;;12.85;10.48;;;4.10;1.00;;;;;;6157874;23;20398;-83
2022/03/05 08:40:13;;;;;;;14.65;10.85;;;4.10;1.00;;;;;;6155467;23;21342;-82
2022/03/05 08:42:40;;;;;;;13.80;10.88;;;4.20;1.00;;;;;;6155924;23;20212;-82
2022/03/05 08:45:08;;;;;;;14.00;10.73;;;4.30;1.00;;;;;;6154659;23;20199;-82
2022/03/05 08:47:35;;;;;;;12.55;10.60;;;4.40;1.00;;;;;;6156330;23;20176;-82
2022/03/05 08:50:04;;;;;;;12.93;10.95;;;4.50;1.00;;;;;;6153947;23;20207;-78
2022/03/05 08:52:35;;;;;;;10.73;9.45;;;4.70;1.00;;;;;;6154678;23;20188;-77
2022/03/05 08:55:04;;;;;;;13.13;10.35;;;4.90;1.00;;;;;;6153344;23;20172;-79
2022/03/05 08:57:31;;;;;;;12.90;9.80;;;5.80;1.00;;;;;;6151185;23;20383;-79
2022/03/05 08:59:58;;;;;;;13.80;10.10;;;6.60;1.00;;;;;;6146839;23;20187;-77
2022/03/05 09:02:25;;;;;;;12.38;10.05;;;6.60;1.00;;;;;;6141758;23;20196;-78
2022/03/05 09:04:53;;;;;;;15.88;10.27;;;6.50;1.00;;;;;;6137579;23;20184;-79
2022/03/05 09:07:20;;;;;;;12.50;9.95;;;6.20;1.00;;;;;;6142275;23;20962;-79
2022/03/05 09:09:46;;;;;;;10.93;9.40;;;6.30;1.00;;;;;;6144542;23;20243;-79
2022/03/05 09:12:15;;;;;;;12.40;10.13;;;7.20;1.00;;;;;;6142956;23;20215;-80
2022/03/05 09:14:42;;;;;;;16.27;10.40;;;9.20;1.00;;;;;;6141592;23;20200;-79
2022/03/05 09:17:08;;;;;;;11.00;9.63;;;11.00;1.00;;;;;;6140566;23;20651;-79
2022/03/05 09:19:35;;;;;;;9.70;8.33;;;11.90;1.00;;;;;;6136141;23;20465;-78
2022/03/05 09:22:03;;;;;;;12.63;9.70;;;12.40;1.00;;;;;;6139984;23;20416;-80
2022/03/05 09:24:29;;;;;;;10.37;8.80;;;13.00;1.00;;;;;;6138471;23;20479;-79
2022/03/05 09:26:56;;;;;;;10.57;8.63;;;13.50;1.00;;;;;;6141044;23;20617;-78
2022/03/05 09:29:25;;;;;;;10.17;8.17;;;13.60;1.00;;;;;;6141691;23;20729;-79
2022/03/05 09:31:52;;;;;;;12.23;9.80;;;13.50;1.00;;;;;;6143806;23;20624;-79
2022/03/05 09:34:18;;;;;;;13.50;8.73;;;13.80;1.00;;;;;;6145971;23;20392;-79
2022/03/05 09:36:45;;;;;;;9.20;8.30;;;14.50;1.00;;;;;;6143567;23;20427;-78
2022/03/05 09:39:12;;;;;;;9.87;8.97;;;15.10;1.00;;;;;;6144374;23;20425;-78
2022/03/05 09:41:39;;;;;;;12.27;9.30;;;15.30;1.00;;;;;;6144695;23;20372;-80
2022/03/05 09:44:06;;;;;;;10.37;9.40;;;15.30;1.00;;;;;;6144541;23;21700;-79
2022/03/05 09:46:37;;;;;;;13.83;8.83;;;15.60;1.00;;;;;;6145328;23;20629;-80
2022/03/05 09:49:05;;;;;;;11.70;9.07;;;16.20;1.00;;;;;;6131187;23;20383;-79
2022/03/05 09:51:32;;;;;;;9.23;8.23;;;16.90;1.00;;;;;;6131496;23;20517;-79
2022/03/05 09:54:02;;;;;;;9.33;8.43;;;17.00;1.00;;;;;;6124274;23;20414;-79
2022/03/05 09:56:29;;;;;;;9.70;8.40;;;16.70;1.00;;;;;;6122346;23;20404;-80
2022/03/05 09:58:57;;;;;;;10.40;8.23;;;16.20;1.00;;;;;;6122922;23;20474;-80
2022/03/05 10:01:24;;;;;;;10.07;8.20;;;16.00;1.00;;;;;;6125254;23;20416;-79
2022/03/05 10:03:56;;;;;;;8.10;7.10;;;15.40;1.00;;;;;;6120833;23;20427;-79
2022/03/05 10:06:26;;;;;;;9.40;8.40;;;15.70;1.00;;;;;;6127677;23;20400;-81
2022/03/05 10:08:55;;;;;;;8.63;7.73;;;15.90;1.00;;;;;;6133119;23;20437;-84
2022/03/05 10:11:22;;;;;;;8.33;7.10;;;15.80;1.00;;;;;;6128672;23;20467;-83
2022/03/05 10:13:48;;;;;;;10.37;7.70;;;16.00;1.00;;;;;;6129167;23;20411;-84
2022/03/05 10:16:28;;;;;;;11.70;8.20;;;16.10;1.00;;;;;;6128957;23;20442;-83
2022/03/05 10:18:57;;;;;;;9.20;7.57;;;15.20;1.00;;;;;;6129077;23;20459;-83
2022/03/05 10:21:32;;;;;;;10.97;8.40;;;14.40;1.00;;;;;;6129107;23;20393;-83
2022/03/05 10:24:10;;;;;;;10.73;8.90;;;13.60;1.00;;;;;;6130152;23;20483;-81
2022/03/05 10:26:53;;;;;;;11.43;7.97;;;13.20;1.00;;;;;;6143190;23;20692;-83
2022/03/05 10:29:22;;;;;;;8.43;7.50;;;13.80;1.00;;;;;;6136316;23;20392;-83
2022/03/05 10:32:01;;;;;;;8.43;7.53;;;14.10;1.00;;;;;;6150188;23;20372;-84
2022/03/05 10:34:34;;;;;;;8.87;7.47;;;15.40;1.00;;;;;;6156697;23;20396;-85
2022/03/05 10:37:02;;;;;;;9.40;8.50;;;16.70;1.00;;;;;;6154111;23;20356;-85
2022/03/05 10:39:29;;;;;;;8.77;7.87;;;17.70;1.00;;;;;;6137210;23;21086;-83
2022/03/05 10:41:57;;;;;;;9.33;7.63;;;18.30;1.00;;;;;;6128949;23;20831;-83
2022/03/05 10:44:28;;;;;;;11.70;8.20;;;18.90;1.00;;;;;;6135721;23;20419;-84
2022/03/05 10:46:57;;;;;;;10.47;7.93;;;19.50;1.00;;;;;;6132936;23;20420;-84
2022/03/05 10:49:31;;;;;;;9.80;7.50;;;20.20;1.00;;;;;;6151399;23;20353;-83
2022/03/05 10:52:08;;;;;;;9.10;8.13;;;20.50;1.00;;;;;;6155359;23;20370;-82
2022/03/05 10:54:38;;;;;;;9.27;8.37;;;20.10;1.00;;;;;;6151767;23;20380;-81
2022/03/05 10:57:09;;;;;;;8.30;7.60;;;20.60;1.00;;;;;;6148602;23;20388;-85
2022/03/05 10:59:37;;;;;;;9.20;8.07;;;19.70;1.00;;;;;;6150515;23;20432;-83
2022/03/05 11:02:04;;;;;;;8.77;7.83;;;19.10;1.00;;;;;;6139265;23;20392;-82
2022/03/05 11:04:32;;;;;;;8.83;7.90;;;19.10;1.00;;;;;;6136403;23;20372;-83
2022/03/05 11:07:00;;;;;;;10.13;8.30;;;19.00;1.00;;;;;;6125918;23;20396;-82
2022/03/05 11:09:30;;;;;;;10.07;8.30;;;18.60;1.00;;;;;;6124980;23;20404;-82
2022/03/05 11:11:59;;;;;;;10.30;9.20;;;17.10;1.00;;;;;;6126616;23;20405;-82
2022/03/05 11:14:27;;;;;;;12.83;8.97;;;15.30;1.00;;;;;;6127059;23;21126;-84
2022/03/05 11:16:54;;;;;;;10.50;9.40;;;13.60;1.00;;;;;;6124263;23;20508;-83
2022/03/05 11:19:22;;;;;;;11.50;9.47;;;12.50;1.00;;;;;;6124845;23;20440;-82
2022/03/05 11:21:49;;;;;;;10.13;9.17;;;11.60;1.00;;;;;;6124290;23;20456;-82
2022/03/05 11:24:18;;;;;;;10.30;9.20;;;10.90;1.00;;;;;;6130697;23;20360;-82
2022/03/05 11:26:50;;;;;;;9.20;8.30;;;10.50;1.00;;;;;;6120991;23;20384;-78
2022/03/05 11:29:18;;;;;;;9.73;8.23;;;12.30;1.00;;;;;;6121935;23;21283;-79
2022/03/05 11:31:46;;;;;;;9.30;8.10;;;14.20;1.00;;;;;;6121607;23;20543;-80
2022/03/05 11:34:14;;;;;;;9.20;7.83;;;15.80;1.00;;;;;;6120712;23;20404;-81
2022/03/05 11:36:43;;;;;;;9.23;7.97;;;18.40;1.00;;;;;;6121117;23;20408;-79
2022/03/05 11:39:18;;;;;;;8.30;7.50;;;20.70;1.00;;;;;;6116876;23;20411;-80
2022/03/05 11:42:01;;;;;;;8.13;7.33;;;22.10;1.00;;;;;;6119393;23;20921;-78
2022/03/05 11:44:29;;;;;;;12.00;7.80;;;22.70;1.00;;;;;;6123595;23;20412;-79
2022/03/05 11:47:22;;;;;;;7.77;7.00;;;21.50;1.00;;;;;;6119674;23;20403;-80
2022/03/05 11:50:06;;;;;;;7.13;6.43;;;18.70;1.00;;;;;;6119547;23;20486;-80
2022/03/05 11:53:05;;;;;;;8.17;7.10;;;15.70;1.00;;;;;;6121904;23;20399;-76
2022/03/05 11:55:32;;;;;;;8.57;7.30;;;13.60;1.00;;;;;;6126470;23;20400;-87
2022/03/05 11:58:25;;;;;;;10.07;7.70;;;12.90;1.00;;;;;;6127914;23;20459;-82
2022/03/05 12:00:54;;;;;;;8.27;6.37;;;12.00;1.00;;;;;;6126278;23;20420;-81
2022/03/05 12:03:42;;;;;;;7.90;6.60;;;11.10;1.00;;;;;;6119220;23;21725;-81
2022/03/05 12:06:11;;;;;;;9.33;7.17;;;10.40;1.00;;;;;;6123403;23;20399;-80
2022/03/05 12:08:52;;;;;;;8.07;6.63;;;9.80;1.00;;;;;;6119945;23;20400;-79
2022/03/05 12:11:21;;;;;;;6.77;6.07;;;9.40;1.00;;;;;;6120733;23;20448;-80
2022/03/05 12:13:54;;;;;;;6.33;5.73;;;11.40;1.00;;;;;;6121109;23;20387;-80
2022/03/05 12:16:23;;;;;;;7.60;5.30;;;14.70;1.00;;;;;;6123207;23;20423;-83
2022/03/05 12:18:51;;;;;;;10.10;6.23;;;17.10;1.00;;;;;;6120065;23;20481;-81
2022/03/05 12:21:28;;;;;;;6.07;5.47;;;18.70;1.00;;;;;;6128941;23;20361;-82
2022/03/05 12:24:00;;;;;;;5.47;4.97;;;20.40;1.00;;;;;;6129932;23;20385;-81
2022/03/05 12:26:37;;;;;;;6.73;5.73;;;21.40;1.00;;;;;;6130951;23;20499;-81
2022/03/05 12:29:06;;;;;;;5.80;4.80;;;22.00;1.00;;;;;;6129298;23;20834;-79
2022/03/05 12:31:33;;;;;;;6.60;5.87;;;22.40;1.00;;;;;;6132832;23;21528;-80
2022/03/05 12:34:00;;;;;;;15.90;11.37;;;22.70;1.00;;;;;;6126062;23;20454;-81
2022/03/05 12:36:27;;;;;;;5.90;5.40;;;21.80;1.00;;;;;;6130497;23;20487;-81
2022/03/05 12:38:56;;;;;;;6.03;5.00;;;20.80;1.00;;;;;;6126721;23;20392;-81
2022/03/05 12:41:26;;;;;;;6.83;5.73;;;19.10;1.00;;;;;;6127035;23;20486;-81
2022/03/05 12:43:53;;;;;;;6.07;5.47;;;17.50;1.00;;;;;;6128721;23;20861;-83
2022/03/05 12:46:21;;;;;;;9.77;6.13;;;16.20;1.00;;;;;;6127709;23;20412;-81
2022/03/05 12:48:48;;;;;;;6.10;5.17;;;14.90;1.00;;;;;;6127903;23;20507;-82
2022/03/05 12:51:15;;;;;;;7.10;4.67;;;13.70;1.00;;;;;;6125666;23;20451;-81
2022/03/05 12:53:42;;;;;;;8.23;5.90;;;12.80;1.00;;;;;;6123596;23;20507;-82
2022/03/05 12:56:11;;;;;;;5.90;5.30;;;12.10;1.00;;;;;;6131946;23;20383;-82
2022/03/05 12:58:42;;;;;;;13.90;9.70;;;11.60;1.00;;;;;;6153069;23;20411;-80
2022/03/05 13:01:11;;;;;;;7.87;6.57;;;11.10;1.00;;;;;;6155216;23;20380;-81